sensor_id;sensor_type;location;lat;lon;timestamp;P1;durP1;ratioP1;P2;durP2;ratioP2
44366;SDS011;30086;57.660;12.000;2023-04-15T00:00:28;12.00;;;7.63;;
44366;SDS011;30086;57.660;12.000;2023-04-15T00:02:54;14.60;;;8.13;;
44366;SDS011;30086;57.660;12.000;2023-04-15T00:05:20;15.32;;;8.77;;
44366;SDS011;30086;57.660;12.000;2023-04-15T00:07:46;14.10;;;8.07;;
44366;SDS011;30086;57.660;12.000;2023-04-15T00:10:13;12.50;;;7.20;;
44366;SDS011;30086;57.660;12.000;2023-04-15T00:12:40;12.73;;;8.10;;
44366;SDS011;30086;57.660;12.000;2023-04-15T00:15:07;14.68;;;7.70;;
44366;SDS011;30086;57.660;12.000;2023-04-15T00:17:33;13.63;;;8.35;;
44366;SDS011;30086;57.660;12.000;2023-04-15T00:20:00;14.05;;;7.93;;
44366;SDS011;30086;57.660;12.000;2023-04-15T00:22:26;13.00;;;7.97;;
44366;SDS011;30086;57.660;12.000;2023-04-15T00:24:52;12.77;;;8.70;;
44366;SDS011;30086;57.660;12.000;2023-04-15T00:27:18;13.15;;;8.32;;
44366;SDS011;30086;57.660;12.000;2023-04-15T00:29:44;15.80;;;8.80;;
44366;SDS011;30086;57.660;12.000;2023-04-15T00:32:10;12.45;;;7.50;;
44366;SDS011;30086;57.660;12.000;2023-04-15T00:34:37;13.38;;;8.88;;
44366;SDS011;30086;57.660;12.000;2023-04-15T00:37:03;13.85;;;8.30;;
44366;SDS011;30086;57.660;12.000;2023-04-15T00:39:29;13.27;;;8.20;;
44366;SDS011;30086;57.660;12.000;2023-04-15T00:41:55;16.10;;;9.18;;
44366;SDS011;30086;57.660;12.000;2023-04-15T00:44:22;12.75;;;7.35;;
44366;SDS011;30086;57.660;12.000;2023-04-15T00:46:52;14.23;;;8.95;;
44366;SDS011;30086;57.660;12.000;2023-04-15T00:49:18;14.40;;;8.48;;
44366;SDS011;30086;57.660;12.000;2023-04-15T00:51:45;15.32;;;8.60;;
44366;SDS011;30086;57.660;12.000;2023-04-15T00:54:11;11.85;;;7.38;;
44366;SDS011;30086;57.660;12.000;2023-04-15T00:56:37;12.48;;;8.38;;
44366;SDS011;30086;57.660;12.000;2023-04-15T00:59:04;12.23;;;7.43;;
44366;SDS011;30086;57.660;12.000;2023-04-15T01:01:32;13.02;;;7.78;;
44366;SDS011;30086;57.660;12.000;2023-04-15T01:03:59;13.02;;;8.02;;
44366;SDS011;30086;57.660;12.000;2023-04-15T01:06:25;14.75;;;8.77;;
44366;SDS011;30086;57.660;12.000;2023-04-15T01:08:55;11.98;;;7.93;;
44366;SDS011;30086;57.660;12.000;2023-04-15T01:11:22;13.77;;;8.05;;
44366;SDS011;30086;57.660;12.000;2023-04-15T01:13:49;12.77;;;7.88;;
44366;SDS011;30086;57.660;12.000;2023-04-15T01:16:16;13.80;;;8.15;;
44366;SDS011;30086;57.660;12.000;2023-04-15T01:18:42;11.55;;;8.20;;
44366;SDS011;30086;57.660;12.000;2023-04-15T01:21:08;13.55;;;7.45;;
44366;SDS011;30086;57.660;12.000;2023-04-15T01:23:35;12.60;;;7.38;;
44366;SDS011;30086;57.660;12.000;2023-04-15T01:26:02;11.82;;;7.63;;
44366;SDS011;30086;57.660;12.000;2023-04-15T01:28:29;12.05;;;7.50;;
44366;SDS011;30086;57.660;12.000;2023-04-15T01:33:53;13.13;;;7.75;;
44366;SDS011;30086;57.660;12.000;2023-04-15T01:36:19;11.63;;;6.93;;
44366;SDS011;30086;57.660;12.000;2023-04-15T01:38:46;12.98;;;6.75;;
44366;SDS011;30086;57.660;12.000;2023-04-15T01:41:12;8.95;;;5.72;;
44366;SDS011;30086;57.660;12.000;2023-04-15T01:43:38;13.07;;;7.05;;
44366;SDS011;30086;57.660;12.000;2023-04-15T01:46:05;13.23;;;6.50;;
44366;SDS011;30086;57.660;12.000;2023-04-15T01:48:31;9.55;;;6.25;;
44366;SDS011;30086;57.660;12.000;2023-04-15T01:50:57;11.13;;;7.07;;
44366;SDS011;30086;57.660;12.000;2023-04-15T01:53:24;10.20;;;6.80;;
44366;SDS011;30086;57.660;12.000;2023-04-15T01:55:50;9.60;;;6.13;;
44366;SDS011;30086;57.660;12.000;2023-04-15T01:58:17;14.43;;;6.55;;
44366;SDS011;30086;57.660;12.000;2023-04-15T02:00:43;12.18;;;6.70;;
44366;SDS011;30086;57.660;12.000;2023-04-15T02:03:09;11.43;;;6.53;;
44366;SDS011;30086;57.660;12.000;2023-04-15T02:05:35;11.75;;;7.82;;
44366;SDS011;30086;57.660;12.000;2023-04-15T02:08:01;9.90;;;6.70;;
44366;SDS011;30086;57.660;12.000;2023-04-15T02:10:28;13.48;;;6.63;;
44366;SDS011;30086;57.660;12.000;2023-04-15T02:12:54;11.93;;;6.95;;
44366;SDS011;30086;57.660;12.000;2023-04-15T02:15:20;15.15;;;6.72;;
44366;SDS011;30086;57.660;12.000;2023-04-15T02:17:46;10.20;;;6.90;;
44366;SDS011;30086;57.660;12.000;2023-04-15T02:20:15;10.70;;;6.65;;
44366;SDS011;30086;57.660;12.000;2023-04-15T02:22:41;12.57;;;7.32;;
44366;SDS011;30086;57.660;12.000;2023-04-15T02:25:08;12.30;;;7.38;;
44366;SDS011;30086;57.660;12.000;2023-04-15T02:27:34;10.65;;;6.65;;
44366;SDS011;30086;57.660;12.000;2023-04-15T02:30:01;11.68;;;7.03;;
44366;SDS011;30086;57.660;12.000;2023-04-15T02:32:27;10.57;;;6.50;;
44366;SDS011;30086;57.660;12.000;2023-04-15T02:34:53;10.43;;;6.30;;
44366;SDS011;30086;57.660;12.000;2023-04-15T02:37:19;10.88;;;7.05;;
44366;SDS011;30086;57.660;12.000;2023-04-15T02:39:45;10.05;;;6.45;;
44366;SDS011;30086;57.660;12.000;2023-04-15T02:42:11;10.25;;;6.55;;
44366;SDS011;30086;57.660;12.000;2023-04-15T02:44:37;10.07;;;7.32;;
44366;SDS011;30086;57.660;12.000;2023-04-15T02:47:04;9.07;;;6.55;;
44366;SDS011;30086;57.660;12.000;2023-04-15T02:49:31;8.52;;;6.30;;
44366;SDS011;30086;57.660;12.000;2023-04-15T02:51:57;10.50;;;7.10;;
44366;SDS011;30086;57.660;12.000;2023-04-15T02:54:24;10.40;;;7.00;;
44366;SDS011;30086;57.660;12.000;2023-04-15T02:56:52;10.30;;;6.43;;
44366;SDS011;30086;57.660;12.000;2023-04-15T02:59:22;10.77;;;7.40;;
44366;SDS011;30086;57.660;12.000;2023-04-15T03:01:48;10.95;;;6.93;;
44366;SDS011;30086;57.660;12.000;2023-04-15T03:04:14;9.73;;;6.72;;
44366;SDS011;30086;57.660;12.000;2023-04-15T03:06:40;12.25;;;7.45;;
44366;SDS011;30086;57.660;12.000;2023-04-15T03:09:06;9.98;;;7.15;;
44366;SDS011;30086;57.660;12.000;2023-04-15T03:11:32;13.85;;;7.15;;
44366;SDS011;30086;57.660;12.000;2023-04-15T03:14:00;12.20;;;7.63;;
44366;SDS011;30086;57.660;12.000;2023-04-15T03:16:26;9.73;;;7.47;;
44366;SDS011;30086;57.660;12.000;2023-04-15T03:18:52;11.50;;;6.95;;
44366;SDS011;30086;57.660;12.000;2023-04-15T03:21:18;9.43;;;6.97;;
44366;SDS011;30086;57.660;12.000;2023-04-15T03:23:45;10.57;;;7.32;;
44366;SDS011;30086;57.660;12.000;2023-04-15T03:26:22;11.95;;;7.43;;
44366;SDS011;30086;57.660;12.000;2023-04-15T03:28:49;13.63;;;6.85;;
44366;SDS011;30086;57.660;12.000;2023-04-15T03:31:15;10.57;;;7.40;;
44366;SDS011;30086;57.660;12.000;2023-04-15T03:33:41;13.73;;;8.05;;
44366;SDS011;30086;57.660;12.000;2023-04-15T03:36:07;12.75;;;8.02;;
44366;SDS011;30086;57.660;12.000;2023-04-15T03:38:33;11.02;;;7.30;;
44366;SDS011;30086;57.660;12.000;2023-04-15T03:40:59;13.02;;;7.63;;
44366;SDS011;30086;57.660;12.000;2023-04-15T03:43:26;12.25;;;8.02;;
44366;SDS011;30086;57.660;12.000;2023-04-15T03:45:52;13.35;;;7.75;;
44366;SDS011;30086;57.660;12.000;2023-04-15T03:48:18;13.70;;;7.45;;
44366;SDS011;30086;57.660;12.000;2023-04-15T03:50:44;12.27;;;7.63;;
44366;SDS011;30086;57.660;12.000;2023-04-15T03:53:11;12.05;;;7.60;;
44366;SDS011;30086;57.660;12.000;2023-04-15T03:55:37;14.48;;;8.05;;
44366;SDS011;30086;57.660;12.000;2023-04-15T03:58:03;13.38;;;7.63;;
44366;SDS011;30086;57.660;12.000;2023-04-15T04:00:29;14.48;;;8.18;;
44366;SDS011;30086;57.660;12.000;2023-04-15T04:02:55;11.27;;;7.68;;
44366;SDS011;30086;57.660;12.000;2023-04-15T04:05:21;17.17;;;8.43;;
44366;SDS011;30086;57.660;12.000;2023-04-15T04:07:47;15.05;;;7.80;;
44366;SDS011;30086;57.660;12.000;2023-04-15T04:10:13;14.80;;;7.88;;
44366;SDS011;30086;57.660;12.000;2023-04-15T04:12:39;15.27;;;7.95;;
44366;SDS011;30086;57.660;12.000;2023-04-15T04:15:05;14.63;;;7.40;;
44366;SDS011;30086;57.660;12.000;2023-04-15T04:17:32;13.60;;;7.70;;
44366;SDS011;30086;57.660;12.000;2023-04-15T04:19:58;15.10;;;6.85;;
44366;SDS011;30086;57.660;12.000;2023-04-15T04:22:24;14.50;;;7.78;;
44366;SDS011;30086;57.660;12.000;2023-04-15T04:24:50;16.58;;;7.68;;
44366;SDS011;30086;57.660;12.000;2023-04-15T04:27:16;11.50;;;7.28;;
44366;SDS011;30086;57.660;12.000;2023-04-15T04:29:42;16.92;;;8.77;;
44366;SDS011;30086;57.660;12.000;2023-04-15T04:32:08;12.32;;;7.68;;
44366;SDS011;30086;57.660;12.000;2023-04-15T04:34:34;12.98;;;7.95;;
44366;SDS011;30086;57.660;12.000;2023-04-15T04:37:00;17.20;;;8.82;;
44366;SDS011;30086;57.660;12.000;2023-04-15T04:39:26;12.95;;;7.57;;
44366;SDS011;30086;57.660;12.000;2023-04-15T04:41:52;11.88;;;7.72;;
44366;SDS011;30086;57.660;12.000;2023-04-15T04:44:18;14.15;;;8.20;;
44366;SDS011;30086;57.660;12.000;2023-04-15T04:46:44;16.25;;;8.38;;
44366;SDS011;30086;57.660;12.000;2023-04-15T04:49:10;11.75;;;7.70;;
44366;SDS011;30086;57.660;12.000;2023-04-15T04:51:36;8.93;;;7.05;;
44366;SDS011;30086;57.660;12.000;2023-04-15T04:54:03;14.57;;;7.47;;
44366;SDS011;30086;57.660;12.000;2023-04-15T04:56:29;17.50;;;8.60;;
44366;SDS011;30086;57.660;12.000;2023-04-15T04:58:55;11.75;;;7.63;;
44366;SDS011;30086;57.660;12.000;2023-04-15T05:01:21;13.18;;;8.02;;
44366;SDS011;30086;57.660;12.000;2023-04-15T05:03:47;11.05;;;7.82;;
44366;SDS011;30086;57.660;12.000;2023-04-15T05:06:13;13.23;;;8.07;;
44366;SDS011;30086;57.660;12.000;2023-04-15T05:08:39;15.48;;;7.15;;
44366;SDS011;30086;57.660;12.000;2023-04-15T05:11:05;17.13;;;8.57;;
44366;SDS011;30086;57.660;12.000;2023-04-15T05:13:32;15.48;;;8.38;;
44366;SDS011;30086;57.660;12.000;2023-04-15T05:16:02;14.20;;;7.38;;
44366;SDS011;30086;57.660;12.000;2023-04-15T05:18:28;16.35;;;8.73;;
44366;SDS011;30086;57.660;12.000;2023-04-15T05:20:54;12.55;;;8.45;;
44366;SDS011;30086;57.660;12.000;2023-04-15T05:23:21;16.10;;;8.27;;
44366;SDS011;30086;57.660;12.000;2023-04-15T05:25:47;18.20;;;9.02;;
44366;SDS011;30086;57.660;12.000;2023-04-15T05:28:13;14.80;;;8.73;;
44366;SDS011;30086;57.660;12.000;2023-04-15T05:30:39;13.20;;;8.27;;
44366;SDS011;30086;57.660;12.000;2023-04-15T05:33:05;15.45;;;7.68;;
44366;SDS011;30086;57.660;12.000;2023-04-15T05:35:31;12.25;;;8.40;;
44366;SDS011;30086;57.660;12.000;2023-04-15T05:37:58;18.25;;;7.93;;
44366;SDS011;30086;57.660;12.000;2023-04-15T05:40:24;15.45;;;7.90;;
44366;SDS011;30086;57.660;12.000;2023-04-15T05:42:50;14.65;;;8.43;;
44366;SDS011;30086;57.660;12.000;2023-04-15T05:45:16;14.70;;;8.43;;
44366;SDS011;30086;57.660;12.000;2023-04-15T05:47:42;10.00;;;7.55;;
44366;SDS011;30086;57.660;12.000;2023-04-15T05:50:09;13.82;;;8.43;;
44366;SDS011;30086;57.660;12.000;2023-04-15T05:52:36;14.90;;;8.23;;
44366;SDS011;30086;57.660;12.000;2023-04-15T05:55:02;15.10;;;8.38;;
44366;SDS011;30086;57.660;12.000;2023-04-15T05:57:28;14.82;;;7.95;;
44366;SDS011;30086;57.660;12.000;2023-04-15T05:59:54;13.13;;;7.78;;
44366;SDS011;30086;57.660;12.000;2023-04-15T06:02:21;11.30;;;7.20;;
44366;SDS011;30086;57.660;12.000;2023-04-15T06:04:47;14.23;;;8.32;;
44366;SDS011;30086;57.660;12.000;2023-04-15T06:07:13;13.43;;;7.13;;
44366;SDS011;30086;57.660;12.000;2023-04-15T06:09:39;13.98;;;7.43;;
44366;SDS011;30086;57.660;12.000;2023-04-15T06:12:05;12.77;;;7.20;;
44366;SDS011;30086;57.660;12.000;2023-04-15T06:14:36;12.25;;;7.03;;
44366;SDS011;30086;57.660;12.000;2023-04-15T06:17:02;13.68;;;7.95;;
44366;SDS011;30086;57.660;12.000;2023-04-15T06:19:28;19.02;;;8.35;;
44366;SDS011;30086;57.660;12.000;2023-04-15T06:21:54;16.77;;;7.38;;
44366;SDS011;30086;57.660;12.000;2023-04-15T06:24:20;13.40;;;7.15;;
44366;SDS011;30086;57.660;12.000;2023-04-15T06:26:49;12.65;;;7.25;;
44366;SDS011;30086;57.660;12.000;2023-04-15T06:29:15;10.80;;;6.85;;
44366;SDS011;30086;57.660;12.000;2023-04-15T06:31:41;15.15;;;8.38;;
44366;SDS011;30086;57.660;12.000;2023-04-15T06:34:07;13.02;;;7.40;;
44366;SDS011;30086;57.660;12.000;2023-04-15T06:36:33;13.48;;;6.97;;
44366;SDS011;30086;57.660;12.000;2023-04-15T06:38:59;14.55;;;7.50;;
44366;SDS011;30086;57.660;12.000;2023-04-15T06:41:26;14.43;;;7.43;;
44366;SDS011;30086;57.660;12.000;2023-04-15T06:43:52;14.32;;;7.90;;
44366;SDS011;30086;57.660;12.000;2023-04-15T06:46:18;13.48;;;8.30;;
44366;SDS011;30086;57.660;12.000;2023-04-15T06:48:44;12.15;;;8.07;;
44366;SDS011;30086;57.660;12.000;2023-04-15T06:51:11;15.23;;;9.73;;
44366;SDS011;30086;57.660;12.000;2023-04-15T06:53:37;16.35;;;9.40;;
44366;SDS011;30086;57.660;12.000;2023-04-15T06:56:07;13.43;;;9.73;;
44366;SDS011;30086;57.660;12.000;2023-04-15T06:58:33;15.38;;;9.70;;
44366;SDS011;30086;57.660;12.000;2023-04-15T07:00:59;12.73;;;8.98;;
44366;SDS011;30086;57.660;12.000;2023-04-15T07:03:25;13.57;;;9.20;;
44366;SDS011;30086;57.660;12.000;2023-04-15T07:05:51;14.40;;;8.75;;
44366;SDS011;30086;57.660;12.000;2023-04-15T07:08:18;19.98;;;10.05;;
44366;SDS011;30086;57.660;12.000;2023-04-15T07:10:45;18.42;;;9.48;;
44366;SDS011;30086;57.660;12.000;2023-04-15T07:13:12;15.50;;;8.98;;
44366;SDS011;30086;57.660;12.000;2023-04-15T07:15:39;14.65;;;8.60;;
44366;SDS011;30086;57.660;12.000;2023-04-15T07:18:05;17.17;;;9.20;;
44366;SDS011;30086;57.660;12.000;2023-04-15T07:20:31;14.98;;;8.88;;
44366;SDS011;30086;57.660;12.000;2023-04-15T07:22:57;12.50;;;8.25;;
44366;SDS011;30086;57.660;12.000;2023-04-15T07:25:23;15.63;;;9.18;;
44366;SDS011;30086;57.660;12.000;2023-04-15T07:27:49;17.60;;;8.77;;
44366;SDS011;30086;57.660;12.000;2023-04-15T07:30:16;14.50;;;8.73;;
44366;SDS011;30086;57.660;12.000;2023-04-15T07:32:42;14.10;;;8.82;;
44366;SDS011;30086;57.660;12.000;2023-04-15T07:35:08;18.60;;;9.05;;
44366;SDS011;30086;57.660;12.000;2023-04-15T07:37:35;17.38;;;8.88;;
44366;SDS011;30086;57.660;12.000;2023-04-15T07:40:02;13.57;;;8.02;;
44366;SDS011;30086;57.660;12.000;2023-04-15T07:42:29;15.55;;;9.00;;
44366;SDS011;30086;57.660;12.000;2023-04-15T07:44:55;15.65;;;8.20;;
44366;SDS011;30086;57.660;12.000;2023-04-15T07:47:22;15.32;;;7.88;;
44366;SDS011;30086;57.660;12.000;2023-04-15T07:49:48;17.60;;;8.10;;
44366;SDS011;30086;57.660;12.000;2023-04-15T07:52:15;18.65;;;8.90;;
44366;SDS011;30086;57.660;12.000;2023-04-15T07:54:41;15.13;;;8.35;;
44366;SDS011;30086;57.660;12.000;2023-04-15T07:57:09;14.27;;;9.13;;
44366;SDS011;30086;57.660;12.000;2023-04-15T07:59:35;17.10;;;8.32;;
44366;SDS011;30086;57.660;12.000;2023-04-15T08:02:01;15.15;;;8.70;;
44366;SDS011;30086;57.660;12.000;2023-04-15T08:04:28;13.23;;;8.38;;
44366;SDS011;30086;57.660;12.000;2023-04-15T08:06:54;17.80;;;8.68;;
44366;SDS011;30086;57.660;12.000;2023-04-15T08:09:20;17.38;;;9.15;;
44366;SDS011;30086;57.660;12.000;2023-04-15T08:11:47;19.52;;;9.30;;
44366;SDS011;30086;57.660;12.000;2023-04-15T08:14:14;16.15;;;8.90;;
44366;SDS011;30086;57.660;12.000;2023-04-15T08:16:41;16.92;;;8.60;;
44366;SDS011;30086;57.660;12.000;2023-04-15T08:19:07;16.83;;;8.35;;
44366;SDS011;30086;57.660;12.000;2023-04-15T08:21:33;18.23;;;9.68;;
44366;SDS011;30086;57.660;12.000;2023-04-15T08:23:59;21.02;;;9.45;;
44366;SDS011;30086;57.660;12.000;2023-04-15T08:26:25;14.77;;;9.57;;
44366;SDS011;30086;57.660;12.000;2023-04-15T08:28:51;13.48;;;8.70;;
44366;SDS011;30086;57.660;12.000;2023-04-15T08:31:17;20.85;;;9.45;;
44366;SDS011;30086;57.660;12.000;2023-04-15T08:33:44;16.33;;;9.10;;
44366;SDS011;30086;57.660;12.000;2023-04-15T08:36:10;14.05;;;8.43;;
44366;SDS011;30086;57.660;12.000;2023-04-15T08:38:37;12.52;;;8.23;;
44366;SDS011;30086;57.660;12.000;2023-04-15T08:41:08;14.73;;;8.43;;
44366;SDS011;30086;57.660;12.000;2023-04-15T08:43:41;23.90;;;9.35;;
44366;SDS011;30086;57.660;12.000;2023-04-15T08:46:09;14.68;;;8.50;;
44366;SDS011;30086;57.660;12.000;2023-04-15T08:48:35;13.73;;;8.15;;
44366;SDS011;30086;57.660;12.000;2023-04-15T08:51:05;14.32;;;8.38;;
44366;SDS011;30086;57.660;12.000;2023-04-15T08:53:32;15.70;;;8.65;;
44366;SDS011;30086;57.660;12.000;2023-04-15T08:55:58;15.13;;;8.73;;
44366;SDS011;30086;57.660;12.000;2023-04-15T08:58:28;11.73;;;7.18;;
44366;SDS011;30086;57.660;12.000;2023-04-15T09:00:55;15.95;;;8.27;;
44366;SDS011;30086;57.660;12.000;2023-04-15T09:03:21;16.15;;;8.70;;
44366;SDS011;30086;57.660;12.000;2023-04-15T09:05:48;15.75;;;7.85;;
44366;SDS011;30086;57.660;12.000;2023-04-15T09:08:15;15.88;;;8.07;;
44366;SDS011;30086;57.660;12.000;2023-04-15T09:10:41;16.92;;;8.13;;
44366;SDS011;30086;57.660;12.000;2023-04-15T09:13:07;14.98;;;7.80;;
44366;SDS011;30086;57.660;12.000;2023-04-15T09:15:33;15.60;;;6.97;;
44366;SDS011;30086;57.660;12.000;2023-04-15T09:18:02;15.52;;;7.78;;
44366;SDS011;30086;57.660;12.000;2023-04-15T09:20:28;21.98;;;7.78;;
44366;SDS011;30086;57.660;12.000;2023-04-15T09:22:55;16.52;;;7.90;;
44366;SDS011;30086;57.660;12.000;2023-04-15T09:27:50;16.27;;;7.75;;
44366;SDS011;30086;57.660;12.000;2023-04-15T09:30:17;12.38;;;7.30;;
44366;SDS011;30086;57.660;12.000;2023-04-15T09:32:49;15.93;;;6.78;;
44366;SDS011;30086;57.660;12.000;2023-04-15T09:35:16;12.95;;;6.95;;
44366;SDS011;30086;57.660;12.000;2023-04-15T09:37:42;14.77;;;6.68;;
44366;SDS011;30086;57.660;12.000;2023-04-15T09:40:08;10.90;;;6.20;;
44366;SDS011;30086;57.660;12.000;2023-04-15T09:42:35;14.90;;;6.93;;
44366;SDS011;30086;57.660;12.000;2023-04-15T09:45:09;13.50;;;6.90;;
44366;SDS011;30086;57.660;12.000;2023-04-15T09:47:36;15.07;;;6.35;;
44366;SDS011;30086;57.660;12.000;2023-04-15T09:50:02;13.10;;;6.68;;
44366;SDS011;30086;57.660;12.000;2023-04-15T09:52:28;17.27;;;7.57;;
44366;SDS011;30086;57.660;12.000;2023-04-15T09:54:58;15.20;;;7.47;;
44366;SDS011;30086;57.660;12.000;2023-04-15T09:57:25;11.57;;;6.53;;
44366;SDS011;30086;57.660;12.000;2023-04-15T09:59:58;15.45;;;7.15;;
44366;SDS011;30086;57.660;12.000;2023-04-15T10:02:24;12.85;;;7.40;;
44366;SDS011;30086;57.660;12.000;2023-04-15T10:04:51;18.15;;;7.25;;
44366;SDS011;30086;57.660;12.000;2023-04-15T10:07:19;18.67;;;6.70;;
44366;SDS011;30086;57.660;12.000;2023-04-15T10:09:47;14.73;;;7.70;;
44366;SDS011;30086;57.660;12.000;2023-04-15T10:12:14;13.10;;;5.10;;
44366;SDS011;30086;57.660;12.000;2023-04-15T10:14:41;13.18;;;6.35;;
44366;SDS011;30086;57.660;12.000;2023-04-15T10:17:07;12.77;;;6.28;;
44366;SDS011;30086;57.660;12.000;2023-04-15T10:19:35;11.00;;;6.38;;
44366;SDS011;30086;57.660;12.000;2023-04-15T10:22:02;13.27;;;8.27;;
44366;SDS011;30086;57.660;12.000;2023-04-15T10:24:30;10.63;;;6.38;;
44366;SDS011;30086;57.660;12.000;2023-04-15T10:26:56;11.15;;;7.63;;
44366;SDS011;30086;57.660;12.000;2023-04-15T10:29:26;14.73;;;6.70;;
44366;SDS011;30086;57.660;12.000;2023-04-15T10:31:55;11.15;;;7.13;;
44366;SDS011;30086;57.660;12.000;2023-04-15T10:34:22;12.90;;;6.90;;
44366;SDS011;30086;57.660;12.000;2023-04-15T10:36:49;12.32;;;6.13;;
44366;SDS011;30086;57.660;12.000;2023-04-15T10:44:34;9.82;;;6.45;;
44366;SDS011;30086;57.660;12.000;2023-04-15T10:47:03;10.57;;;6.57;;
44366;SDS011;30086;57.660;12.000;2023-04-15T10:49:29;11.85;;;6.60;;
44366;SDS011;30086;57.660;12.000;2023-04-15T10:51:56;10.95;;;6.43;;
44366;SDS011;30086;57.660;12.000;2023-04-15T11:02:15;12.18;;;7.63;;
44366;SDS011;30086;57.660;12.000;2023-04-15T11:10:48;11.88;;;6.90;;
44366;SDS011;30086;57.660;12.000;2023-04-15T11:12:50;11.68;;;6.97;;
44366;SDS011;30086;57.660;12.000;2023-04-15T11:17:59;12.55;;;7.30;;
44366;SDS011;30086;57.660;12.000;2023-04-15T11:20:33;13.05;;;7.43;;
44366;SDS011;30086;57.660;12.000;2023-04-15T11:22:59;12.23;;;7.55;;
44366;SDS011;30086;57.660;12.000;2023-04-15T11:25:26;10.65;;;7.30;;
44366;SDS011;30086;57.660;12.000;2023-04-15T11:27:53;10.25;;;6.95;;
44366;SDS011;30086;57.660;12.000;2023-04-15T11:30:20;10.50;;;6.60;;
44366;SDS011;30086;57.660;12.000;2023-04-15T11:32:47;11.85;;;7.38;;
44366;SDS011;30086;57.660;12.000;2023-04-15T11:35:14;11.57;;;7.60;;
44366;SDS011;30086;57.660;12.000;2023-04-15T11:37:41;10.77;;;7.82;;
44366;SDS011;30086;57.660;12.000;2023-04-15T11:40:07;12.20;;;7.53;;
44366;SDS011;30086;57.660;12.000;2023-04-15T11:42:33;12.77;;;7.07;;
44366;SDS011;30086;57.660;12.000;2023-04-15T11:45:09;11.60;;;7.85;;
44366;SDS011;30086;57.660;12.000;2023-04-15T11:47:35;12.55;;;7.20;;
44366;SDS011;30086;57.660;12.000;2023-04-15T11:50:21;12.80;;;7.53;;
44366;SDS011;30086;57.660;12.000;2023-04-15T11:52:57;10.88;;;6.35;;
44366;SDS011;30086;57.660;12.000;2023-04-15T11:55:24;12.43;;;7.07;;
44366;SDS011;30086;57.660;12.000;2023-04-15T11:58:09;12.43;;;6.95;;
44366;SDS011;30086;57.660;12.000;2023-04-15T12:00:35;19.90;;;7.07;;
44366;SDS011;30086;57.660;12.000;2023-04-15T12:03:11;10.25;;;7.00;;
44366;SDS011;30086;57.660;12.000;2023-04-15T12:08:22;10.60;;;6.22;;
44366;SDS011;30086;57.660;12.000;2023-04-15T12:10:48;8.63;;;6.63;;
44366;SDS011;30086;57.660;12.000;2023-04-15T12:13:14;11.45;;;6.40;;
44366;SDS011;30086;57.660;12.000;2023-04-15T12:15:40;13.73;;;6.80;;
44366;SDS011;30086;57.660;12.000;2023-04-15T12:18:15;12.02;;;6.35;;
44366;SDS011;30086;57.660;12.000;2023-04-15T12:23:08;9.35;;;6.32;;
44366;SDS011;30086;57.660;12.000;2023-04-15T12:25:35;11.18;;;6.20;;
44366;SDS011;30086;57.660;12.000;2023-04-15T12:28:05;11.05;;;7.05;;
44366;SDS011;30086;57.660;12.000;2023-04-15T12:30:35;9.43;;;5.88;;
44366;SDS011;30086;57.660;12.000;2023-04-15T12:33:01;8.65;;;6.25;;
44366;SDS011;30086;57.660;12.000;2023-04-15T12:35:28;7.90;;;5.88;;
44366;SDS011;30086;57.660;12.000;2023-04-15T12:37:54;10.30;;;6.30;;
44366;SDS011;30086;57.660;12.000;2023-04-15T12:40:20;10.30;;;6.07;;
44366;SDS011;30086;57.660;12.000;2023-04-15T12:42:46;10.45;;;5.90;;
44366;SDS011;30086;57.660;12.000;2023-04-15T12:45:12;7.68;;;5.68;;
44366;SDS011;30086;57.660;12.000;2023-04-15T12:47:38;8.57;;;5.95;;
44366;SDS011;30086;57.660;12.000;2023-04-15T12:50:04;15.10;;;5.82;;
44366;SDS011;30086;57.660;12.000;2023-04-15T12:52:31;9.02;;;5.80;;
44366;SDS011;30086;57.660;12.000;2023-04-15T12:54:57;8.80;;;6.10;;
44366;SDS011;30086;57.660;12.000;2023-04-15T12:57:25;8.52;;;5.35;;
44366;SDS011;30086;57.660;12.000;2023-04-15T12:59:53;9.38;;;5.82;;
44366;SDS011;30086;57.660;12.000;2023-04-15T13:02:19;10.60;;;5.90;;
44366;SDS011;30086;57.660;12.000;2023-04-15T13:04:49;10.02;;;5.35;;
44366;SDS011;30086;57.660;12.000;2023-04-15T13:07:15;9.05;;;4.68;;
44366;SDS011;30086;57.660;12.000;2023-04-15T13:09:42;15.68;;;5.80;;
44366;SDS011;30086;57.660;12.000;2023-04-15T13:12:09;8.82;;;5.50;;
44366;SDS011;30086;57.660;12.000;2023-04-15T13:14:37;12.40;;;5.32;;
44366;SDS011;30086;57.660;12.000;2023-04-15T13:17:03;9.85;;;5.47;;
44366;SDS011;30086;57.660;12.000;2023-04-15T13:19:34;9.57;;;5.40;;
44366;SDS011;30086;57.660;12.000;2023-04-15T13:22:01;10.18;;;5.13;;
44366;SDS011;30086;57.660;12.000;2023-04-15T13:24:27;10.73;;;5.65;;
44366;SDS011;30086;57.660;12.000;2023-04-15T13:26:54;9.80;;;5.63;;
44366;SDS011;30086;57.660;12.000;2023-04-15T13:29:23;12.82;;;5.50;;
44366;SDS011;30086;57.660;12.000;2023-04-15T13:31:49;11.43;;;4.75;;
44366;SDS011;30086;57.660;12.000;2023-04-15T13:34:15;8.77;;;5.00;;
44366;SDS011;30086;57.660;12.000;2023-04-15T13:36:41;11.07;;;5.15;;
44366;SDS011;30086;57.660;12.000;2023-04-15T13:39:07;8.48;;;4.82;;
44366;SDS011;30086;57.660;12.000;2023-04-15T13:41:33;11.40;;;4.90;;
44366;SDS011;30086;57.660;12.000;2023-04-15T13:44:01;11.30;;;5.05;;
44366;SDS011;30086;57.660;12.000;2023-04-15T13:46:29;9.65;;;4.65;;
44366;SDS011;30086;57.660;12.000;2023-04-15T13:48:55;7.32;;;4.53;;
44366;SDS011;30086;57.660;12.000;2023-04-15T13:51:21;9.65;;;4.60;;
44366;SDS011;30086;57.660;12.000;2023-04-15T13:53:47;10.10;;;4.32;;
44366;SDS011;30086;57.660;12.000;2023-04-15T13:56:13;9.23;;;4.50;;
44366;SDS011;30086;57.660;12.000;2023-04-15T13:58:41;8.52;;;4.43;;
44366;SDS011;30086;57.660;12.000;2023-04-15T14:01:07;7.82;;;4.70;;
44366;SDS011;30086;57.660;12.000;2023-04-15T14:03:33;5.97;;;4.35;;
44366;SDS011;30086;57.660;12.000;2023-04-15T14:06:00;8.85;;;4.43;;
44366;SDS011;30086;57.660;12.000;2023-04-15T14:08:26;6.50;;;4.22;;
44366;SDS011;30086;57.660;12.000;2023-04-15T14:10:52;8.52;;;4.25;;
44366;SDS011;30086;57.660;12.000;2023-04-15T14:13:18;7.97;;;4.85;;
44366;SDS011;30086;57.660;12.000;2023-04-15T14:15:47;9.18;;;4.80;;
44366;SDS011;30086;57.660;12.000;2023-04-15T14:18:13;9.57;;;4.20;;
44366;SDS011;30086;57.660;12.000;2023-04-15T14:20:39;9.10;;;4.20;;
44366;SDS011;30086;57.660;12.000;2023-04-15T14:23:05;8.27;;;4.10;;
44366;SDS011;30086;57.660;12.000;2023-04-15T14:25:31;6.38;;;4.13;;
44366;SDS011;30086;57.660;12.000;2023-04-15T14:27:57;5.18;;;3.92;;
44366;SDS011;30086;57.660;12.000;2023-04-15T14:30:23;8.00;;;4.60;;
44366;SDS011;30086;57.660;12.000;2023-04-15T14:32:49;5.75;;;4.35;;
44366;SDS011;30086;57.660;12.000;2023-04-15T14:35:15;7.90;;;3.67;;
44366;SDS011;30086;57.660;12.000;2023-04-15T14:37:41;7.13;;;4.03;;
44366;SDS011;30086;57.660;12.000;2023-04-15T14:40:07;6.20;;;3.95;;
44366;SDS011;30086;57.660;12.000;2023-04-15T14:42:33;10.25;;;4.10;;
44366;SDS011;30086;57.660;12.000;2023-04-15T14:45:01;6.95;;;4.00;;
44366;SDS011;30086;57.660;12.000;2023-04-15T14:47:27;7.28;;;4.03;;
44366;SDS011;30086;57.660;12.000;2023-04-15T14:49:53;9.13;;;4.20;;
44366;SDS011;30086;57.660;12.000;2023-04-15T14:52:20;7.85;;;3.72;;